sensor_id;sensor_type;location;lat;lon;timestamp;pressure;altitude;pressure_sealevel;temperature;humidity
75045;BME280;63614;56.026;35.960;2023-03-15T00:00:37;98297.66;;;3.62;56.49
75045;BME280;63614;56.026;35.960;2023-03-15T00:03:03;98306.59;;;3.67;56.36
75045;BME280;63614;56.026;35.960;2023-03-15T00:05:30;98316.25;;;3.64;56.47
75045;BME280;63614;56.026;35.960;2023-03-15T00:07:57;98306.78;;;3.65;56.11
75045;BME280;63614;56.026;35.960;2023-03-15T00:10:23;98316.78;;;3.60;57.08
75045;BME280;63614;56.026;35.960;2023-03-15T00:12:49;98309.69;;;3.62;56.36
75045;BME280;63614;56.026;35.960;2023-03-15T00:15:15;98306.78;;;3.65;56.45
75045;BME280;63614;56.026;35.960;2023-03-15T00:17:41;98306.94;;;3.63;56.50
75045;BME280;63614;56.026;35.960;2023-03-15T00:20:07;98300.03;;;3.64;56.63
75045;BME280;63614;56.026;35.960;2023-03-15T00:22:35;98307.44;;;3.67;55.69
75045;BME280;63614;56.026;35.960;2023-03-15T00:25:00;98302.78;;;3.62;56.45
75045;BME280;63614;56.026;35.960;2023-03-15T00:27:26;98305.19;;;3.64;56.28
75045;BME280;63614;56.026;35.960;2023-03-15T00:29:52;98303.06;;;3.68;55.46
75045;BME280;63614;56.026;35.960;2023-03-15T00:32:18;98307.75;;;3.64;56.56
75045;BME280;63614;56.026;35.960;2023-03-15T00:34:43;98299.22;;;3.63;56.44
75045;BME280;63614;56.026;35.960;2023-03-15T00:37:15;98299.72;;;3.59;56.41
75045;BME280;63614;56.026;35.960;2023-03-15T00:39:42;98296.66;;;3.63;56.44
75045;BME280;63614;56.026;35.960;2023-03-15T00:42:11;98297.66;;;3.62;56.24
75045;BME280;63614;56.026;35.960;2023-03-15T00:44:43;98299.22;;;3.63;56.24
75045;BME280;63614;56.026;35.960;2023-03-15T00:47:10;98304.38;;;3.63;56.47
75045;BME280;63614;56.026;35.960;2023-03-15T00:49:37;98300.56;;;3.59;56.49
75045;BME280;63614;56.026;35.960;2023-03-15T00:52:04;98295.91;;;3.55;56.43
75045;BME280;63614;56.026;35.960;2023-03-15T00:54:30;98287.91;;;3.50;56.73
75045;BME280;63614;56.026;35.960;2023-03-15T00:57:00;98292.22;;;3.49;56.38
75045;BME280;63614;56.026;35.960;2023-03-15T00:59:31;98295.63;;;3.50;56.71
75045;BME280;63614;56.026;35.960;2023-03-15T01:02:08;98291.50;;;3.40;57.08
75045;BME280;63614;56.026;35.960;2023-03-15T01:04:34;98290.50;;;3.41;57.17
75045;BME280;63614;56.026;35.960;2023-03-15T01:07:00;98306.25;;;3.47;56.50
75045;BME280;63614;56.026;35.960;2023-03-15T01:09:27;98291.00;;;3.45;56.78
75045;BME280;63614;56.026;35.960;2023-03-15T01:11:53;98284.22;;;3.44;57.29
75045;BME280;63614;56.026;35.960;2023-03-15T01:14:18;98305.59;;;3.44;57.07
75045;BME280;63614;56.026;35.960;2023-03-15T01:16:45;98295.00;;;3.39;57.31
75045;BME280;63614;56.026;35.960;2023-03-15T01:19:12;98305.63;;;3.36;57.27
75045;BME280;63614;56.026;35.960;2023-03-15T01:21:38;98289.09;;;3.39;57.45
75045;BME280;63614;56.026;35.960;2023-03-15T01:24:04;98303.06;;;3.36;57.34
75045;BME280;63614;56.026;35.960;2023-03-15T01:26:30;98297.47;;;3.33;57.92
75045;BME280;63614;56.026;35.960;2023-03-15T01:28:56;98301.66;;;3.34;57.78
75045;BME280;63614;56.026;35.960;2023-03-15T01:31:27;98307.25;;;3.37;57.56
75045;BME280;63614;56.026;35.960;2023-03-15T01:33:55;98299.88;;;3.34;58.03
75045;BME280;63614;56.026;35.960;2023-03-15T01:36:21;98307.06;;;3.39;57.32
75045;BME280;63614;56.026;35.960;2023-03-15T01:38:48;98289.88;;;3.39;57.70
75045;BME280;63614;56.026;35.960;2023-03-15T01:41:17;98303.72;;;3.38;57.80
75045;BME280;63614;56.026;35.960;2023-03-15T01:43:44;98297.41;;;3.41;57.82
75045;BME280;63614;56.026;35.960;2023-03-15T01:51:50;98300.16;;;3.39;58.22
75045;BME280;63614;56.026;35.960;2023-03-15T01:56:57;98312.06;;;3.40;58.64
75045;BME280;63614;56.026;35.960;2023-03-15T01:59:30;98302.22;;;3.44;58.68
75045;BME280;63614;56.026;35.960;2023-03-15T02:01:58;98300.44;;;3.44;58.43
75045;BME280;63614;56.026;35.960;2023-03-15T02:04:39;98306.75;;;3.42;58.73
75045;BME280;63614;56.026;35.960;2023-03-15T02:07:07;98303.50;;;3.48;58.75
75045;BME280;63614;56.026;35.960;2023-03-15T02:09:46;98295.47;;;3.43;59.18
75045;BME280;63614;56.026;35.960;2023-03-15T02:12:14;98302.06;;;3.45;58.80
75045;BME280;63614;56.026;35.960;2023-03-15T02:14:41;98305.91;;;3.50;59.00
75045;BME280;63614;56.026;35.960;2023-03-15T02:17:12;98312.81;;;3.49;59.08
75045;BME280;63614;56.026;35.960;2023-03-15T02:20:24;98307.00;;;3.55;58.90
75045;BME280;63614;56.026;35.960;2023-03-15T02:23:04;98311.00;;;3.58;59.03
75045;BME280;63614;56.026;35.960;2023-03-15T02:26:01;98307.09;;;3.62;58.95
75045;BME280;63614;56.026;35.960;2023-03-15T02:28:29;98310.16;;;3.66;58.93
75045;BME280;63614;56.026;35.960;2023-03-15T02:30:56;98312.91;;;3.64;58.96
75045;BME280;63614;56.026;35.960;2023-03-15T02:33:28;98314.81;;;3.62;58.93
75045;BME280;63614;56.026;35.960;2023-03-15T02:35:56;98301.00;;;3.63;59.31
75045;BME280;63614;56.026;35.960;2023-03-15T02:38:30;98301.97;;;3.62;59.07
75045;BME280;63614;56.026;35.960;2023-03-15T02:40:57;98304.53;;;3.70;59.45
75045;BME280;63614;56.026;35.960;2023-03-15T02:43:27;98303.25;;;3.66;59.43
75045;BME280;63614;56.026;35.960;2023-03-15T02:45:55;98309.28;;;3.73;59.21
75045;BME280;63614;56.026;35.960;2023-03-15T02:48:21;98298.66;;;3.76;59.41
75045;BME280;63614;56.026;35.960;2023-03-15T02:50:47;98310.00;;;3.67;59.69
75045;BME280;63614;56.026;35.960;2023-03-15T02:53:13;98301.56;;;3.73;59.70
75045;BME280;63614;56.026;35.960;2023-03-15T02:55:39;98294.22;;;3.70;59.62
75045;BME280;63614;56.026;35.960;2023-03-15T02:58:05;98308.34;;;3.74;59.27
75045;BME280;63614;56.026;35.960;2023-03-15T03:00:31;98293.25;;;3.71;59.57
75045;BME280;63614;56.026;35.960;2023-03-15T03:02:57;98289.72;;;3.72;59.79
75045;BME280;63614;56.026;35.960;2023-03-15T03:05:24;98289.53;;;3.74;59.85
75045;BME280;63614;56.026;35.960;2023-03-15T03:07:50;98293.56;;;3.68;59.88
75045;BME280;63614;56.026;35.960;2023-03-15T03:10:18;98300.56;;;3.59;60.02
75045;BME280;63614;56.026;35.960;2023-03-15T03:12:54;98302.13;;;3.60;60.59
75045;BME280;63614;56.026;35.960;2023-03-15T03:15:27;98295.28;;;3.53;61.08
75045;BME280;63614;56.026;35.960;2023-03-15T03:17:53;98288.72;;;3.50;60.37
75045;BME280;63614;56.026;35.960;2023-03-15T03:20:21;98301.84;;;3.55;60.57
75045;BME280;63614;56.026;35.960;2023-03-15T03:22:48;98304.88;;;3.59;60.78
75045;BME280;63614;56.026;35.960;2023-03-15T03:25:16;98312.75;;;3.57;60.63
75045;BME280;63614;56.026;35.960;2023-03-15T03:27:42;98308.09;;;3.61;60.98
75045;BME280;63614;56.026;35.960;2023-03-15T03:30:12;98303.41;;;3.64;60.57
75045;BME280;63614;56.026;35.960;2023-03-15T03:32:42;98305.81;;;3.66;61.20
75045;BME280;63614;56.026;35.960;2023-03-15T03:35:08;98294.41;;;3.60;61.57
75045;BME280;63614;56.026;35.960;2023-03-15T03:37:35;98307.94;;;3.62;61.30
75045;BME280;63614;56.026;35.960;2023-03-15T03:40:06;98307.44;;;3.67;61.01
75045;BME280;63614;56.026;35.960;2023-03-15T03:42:34;98313.88;;;3.63;61.62
75045;BME280;63614;56.026;35.960;2023-03-15T03:45:00;98311.63;;;3.60;61.86
75045;BME280;63614;56.026;35.960;2023-03-15T03:47:32;98307.63;;;3.57;61.86
75045;BME280;63614;56.026;35.960;2023-03-15T03:49:59;98313.41;;;3.59;61.65
75045;BME280;63614;56.026;35.960;2023-03-15T03:52:25;98322.25;;;3.57;61.88
75045;BME280;63614;56.026;35.960;2023-03-15T03:54:55;98314.03;;;3.61;61.82
75045;BME280;63614;56.026;35.960;2023-03-15T03:57:21;98318.59;;;3.51;62.00
75045;BME280;63614;56.026;35.960;2023-03-15T03:59:47;98315.47;;;3.64;61.66
75045;BME280;63614;56.026;35.960;2023-03-15T04:02:13;98310.97;;;3.66;61.89
75045;BME280;63614;56.026;35.960;2023-03-15T04:04:48;98309.47;;;3.72;61.71
75045;BME280;63614;56.026;35.960;2023-03-15T04:07:20;98319.94;;;3.70;61.92
75045;BME280;63614;56.026;35.960;2023-03-15T04:09:46;98334.56;;;3.70;61.38
75045;BME280;63614;56.026;35.960;2023-03-15T04:12:12;98335.53;;;3.69;61.62
75045;BME280;63614;56.026;35.960;2023-03-15T04:14:41;98315.47;;;3.64;61.79
75045;BME280;63614;56.026;35.960;2023-03-15T04:17:10;98326.06;;;3.69;62.35
75045;BME280;63614;56.026;35.960;2023-03-15T04:19:36;98322.69;;;3.69;61.33
75045;BME280;63614;56.026;35.960;2023-03-15T04:22:03;98319.00;;;3.63;62.25
75045;BME280;63614;56.026;35.960;2023-03-15T04:24:55;98333.25;;;3.74;61.88
75045;BME280;63614;56.026;35.960;2023-03-15T04:27:40;98329.53;;;3.76;61.98
75045;BME280;63614;56.026;35.960;2023-03-15T04:30:16;98324.09;;;3.71;62.11
75045;BME280;63614;56.026;35.960;2023-03-15T04:33:00;98328.56;;;3.77;61.78
75045;BME280;63614;56.026;35.960;2023-03-15T04:35:44;98332.59;;;3.72;62.01
75045;BME280;63614;56.026;35.960;2023-03-15T04:38:29;98329.47;;;3.61;62.48
75045;BME280;63614;56.026;35.960;2023-03-15T04:41:20;98345.66;;;3.70;62.25
75045;BME280;63614;56.026;35.960;2023-03-15T04:44:08;98335.72;;;3.67;62.18
75045;BME280;63614;56.026;35.960;2023-03-15T04:46:53;98354.50;;;3.68;62.43
75045;BME280;63614;56.026;35.960;2023-03-15T04:49:28;98363.97;;;3.75;62.15
75045;BME280;63614;56.026;35.960;2023-03-15T04:52:14;98355.63;;;3.65;62.75
75045;BME280;63614;56.026;35.960;2023-03-15T04:54:42;98366.81;;;3.80;62.33
75045;BME280;63614;56.026;35.960;2023-03-15T04:57:40;98376.59;;;3.85;61.99
75045;BME280;63614;56.026;35.960;2023-03-15T05:00:07;98378.16;;;3.94;62.02
75045;BME280;63614;56.026;35.960;2023-03-15T05:02:56;98381.56;;;3.87;61.89
75045;BME280;63614;56.026;35.960;2023-03-15T05:05:44;98384.91;;;3.95;61.97
75045;BME280;63614;56.026;35.960;2023-03-15T05:08:34;98390.00;;;4.04;61.76
75045;BME280;63614;56.026;35.960;2023-03-15T05:11:19;98369.41;;;4.04;61.83
75045;BME280;63614;56.026;35.960;2023-03-15T05:13:58;98379.41;;;3.98;61.96
75045;BME280;63614;56.026;35.960;2023-03-15T05:16:40;98383.03;;;4.12;61.40
75045;BME280;63614;56.026;35.960;2023-03-15T05:19:26;98384.69;;;4.05;61.27
75045;BME280;63614;56.026;35.960;2023-03-15T05:22:15;98390.13;;;4.10;61.54
75045;BME280;63614;56.026;35.960;2023-03-15T05:25:10;98387.06;;;4.07;60.83
75045;BME280;63614;56.026;35.960;2023-03-15T05:27:59;98404.75;;;4.10;61.46
75045;BME280;63614;56.026;35.960;2023-03-15T05:30:50;98406.66;;;4.16;61.31
75045;BME280;63614;56.026;35.960;2023-03-15T05:33:39;98400.66;;;4.24;60.87
75045;BME280;63614;56.026;35.960;2023-03-15T05:36:30;98403.75;;;4.19;60.65
75045;BME280;63614;56.026;35.960;2023-03-15T05:39:23;98401.00;;;4.21;60.65
75045;BME280;63614;56.026;35.960;2023-03-15T05:42:07;98404.34;;;4.29;60.77
75045;BME280;63614;56.026;35.960;2023-03-15T05:44:49;98397.06;;;4.33;60.88
75045;BME280;63614;56.026;35.960;2023-03-15T05:47:29;98382.31;;;4.27;60.33
75045;BME280;63614;56.026;35.960;2023-03-15T05:50:18;98408.94;;;4.34;60.22
75045;BME280;63614;56.026;35.960;2023-03-15T05:52:44;98408.09;;;4.18;60.62
75045;BME280;63614;56.026;35.960;2023-03-15T05:55:30;98419.84;;;4.44;60.20
75045;BME280;63614;56.026;35.960;2023-03-15T05:58:14;98425.44;;;4.48;59.71
75045;BME280;63614;56.026;35.960;2023-03-15T06:00:58;98419.38;;;4.41;59.72
75045;BME280;63614;56.026;35.960;2023-03-15T06:03:44;98419.56;;;4.39;59.92
75045;BME280;63614;56.026;35.960;2023-03-15T06:06:18;98428.69;;;4.42;59.77
75045;BME280;63614;56.026;35.960;2023-03-15T06:08:43;98428.47;;;4.51;59.27
75045;BME280;63614;56.026;35.960;2023-03-15T06:11:09;98424.75;;;4.54;59.06
75045;BME280;63614;56.026;35.960;2023-03-15T06:13:36;98409.03;;;4.49;59.33
75045;BME280;63614;56.026;35.960;2023-03-15T06:16:08;98434.59;;;4.50;59.09
75045;BME280;63614;56.026;35.960;2023-03-15T06:18:38;98437.13;;;4.59;59.01
75045;BME280;63614;56.026;35.960;2023-03-15T06:21:04;98439.34;;;4.62;59.40
75045;BME280;63614;56.026;35.960;2023-03-15T06:23:30;98454.81;;;4.62;59.55
75045;BME280;63614;56.026;35.960;2023-03-15T06:25:56;98447.34;;;4.67;58.47
75045;BME280;63614;56.026;35.960;2023-03-15T06:28:22;98461.03;;;4.67;59.62
75045;BME280;63614;56.026;35.960;2023-03-15T06:30:54;98451.19;;;4.71;58.58
75045;BME280;63614;56.026;35.960;2023-03-15T06:33:25;98456.38;;;4.86;57.93
75045;BME280;63614;56.026;35.960;2023-03-15T06:35:51;98439.91;;;5.10;57.26
75045;BME280;63614;56.026;35.960;2023-03-15T06:38:17;98445.88;;;5.11;56.99
75045;BME280;63614;56.026;35.960;2023-03-15T06:40:42;98449.91;;;5.43;56.37
75045;BME280;63614;56.026;35.960;2023-03-15T06:43:08;98460.06;;;5.44;55.89
75045;BME280;63614;56.026;35.960;2023-03-15T06:45:39;98445.81;;;5.34;55.83
75045;BME280;63614;56.026;35.960;2023-03-15T06:48:05;98448.66;;;5.24;56.68
75045;BME280;63614;56.026;35.960;2023-03-15T06:50:31;98443.31;;;5.25;56.56
75045;BME280;63614;56.026;35.960;2023-03-15T06:52:57;98451.41;;;5.22;56.51
75045;BME280;63614;56.026;35.960;2023-03-15T06:55:25;98456.25;;;5.02;57.28
75045;BME280;63614;56.026;35.960;2023-03-15T06:57:51;98461.44;;;5.17;57.03
75045;BME280;63614;56.026;35.960;2023-03-15T07:00:17;98459.56;;;5.11;56.86
75045;BME280;63614;56.026;35.960;2023-03-15T07:02:42;98451.94;;;5.18;56.54
75045;BME280;63614;56.026;35.960;2023-03-15T07:05:09;98457.44;;;5.30;55.96
75045;BME280;63614;56.026;35.960;2023-03-15T07:07:35;98459.06;;;5.31;55.92
75045;BME280;63614;56.026;35.960;2023-03-15T07:10:04;98460.06;;;5.44;55.82
75045;BME280;63614;56.026;35.960;2023-03-15T07:12:30;98451.34;;;5.60;55.41
75045;BME280;63614;56.026;35.960;2023-03-15T07:14:55;98448.31;;;5.57;55.46
75045;BME280;63614;56.026;35.960;2023-03-15T07:17:21;98463.50;;;5.81;55.10
75045;BME280;63614;56.026;35.960;2023-03-15T07:19:47;98450.09;;;5.71;55.19
75045;BME280;63614;56.026;35.960;2023-03-15T07:22:13;98450.53;;;5.45;56.10
75045;BME280;63614;56.026;35.960;2023-03-15T07:24:39;98456.69;;;5.59;55.27
75045;BME280;63614;56.026;35.960;2023-03-15T07:27:05;98458.00;;;5.70;55.27
75045;BME280;63614;56.026;35.960;2023-03-15T07:29:31;98466.09;;;5.81;54.66
75045;BME280;63614;56.026;35.960;2023-03-15T07:31:56;98466.72;;;5.69;54.58
75045;BME280;63614;56.026;35.960;2023-03-15T07:34:23;98468.56;;;5.90;54.46
75045;BME280;63614;56.026;35.960;2023-03-15T07:36:48;98467.72;;;5.97;54.20
75045;BME280;63614;56.026;35.960;2023-03-15T07:39:14;98469.22;;;6.07;54.24
75045;BME280;63614;56.026;35.960;2023-03-15T07:41:40;98452.97;;;6.28;53.38
75045;BME280;63614;56.026;35.960;2023-03-15T07:44:14;98450.81;;;6.31;53.33
75045;BME280;63614;56.026;35.960;2023-03-15T07:46:40;98452.47;;;6.17;53.62
75045;BME280;63614;56.026;35.960;2023-03-15T07:49:05;98444.53;;;6.41;53.13
75045;BME280;63614;56.026;35.960;2023-03-15T07:51:31;98455.19;;;6.31;52.99
75045;BME280;63614;56.026;35.960;2023-03-15T07:53:57;98465.44;;;6.46;52.93
75045;BME280;63614;56.026;35.960;2023-03-15T07:56:23;98461.81;;;6.62;52.21
75045;BME280;63614;56.026;35.960;2023-03-15T07:58:48;98471.13;;;6.78;51.99
75045;BME280;63614;56.026;35.960;2023-03-15T08:01:14;98458.56;;;6.96;51.67
75045;BME280;63614;56.026;35.960;2023-03-15T08:03:40;98455.47;;;6.86;52.10
75045;BME280;63614;56.026;35.960;2023-03-15T08:06:06;98467.84;;;6.90;52.02
75045;BME280;63614;56.026;35.960;2023-03-15T08:08:32;98476.47;;;6.98;51.73
75045;BME280;63614;56.026;35.960;2023-03-15T08:10:58;98455.75;;;6.91;50.86
75045;BME280;63614;56.026;35.960;2023-03-15T08:13:24;98455.94;;;6.89;51.11
75045;BME280;63614;56.026;35.960;2023-03-15T08:15:50;98463.19;;;7.01;50.85
75045;BME280;63614;56.026;35.960;2023-03-15T08:18:16;98470.25;;;6.92;50.34
75045;BME280;63614;56.026;35.960;2023-03-15T08:20:41;98472.47;;;6.95;50.44
75045;BME280;63614;56.026;35.960;2023-03-15T08:23:08;98476.97;;;6.86;50.66
75045;BME280;63614;56.026;35.960;2023-03-15T08:25:34;98478.50;;;6.81;51.54
75045;BME280;63614;56.026;35.960;2023-03-15T08:28:01;98484.19;;;6.91;50.81
75045;BME280;63614;56.026;35.960;2023-03-15T08:30:27;98484.19;;;6.91;51.75
75045;BME280;63614;56.026;35.960;2023-03-15T08:32:52;98509.03;;;6.92;51.39
75045;BME280;63614;56.026;35.960;2023-03-15T08:35:20;98499.25;;;7.09;51.25
75045;BME280;63614;56.026;35.960;2023-03-15T08:37:46;98496.91;;;6.93;51.74
75045;BME280;63614;56.026;35.960;2023-03-15T08:40:14;98507.44;;;6.91;51.89
75045;BME280;63614;56.026;35.960;2023-03-15T08:42:40;98503.75;;;6.79;52.50
75045;BME280;63614;56.026;35.960;2023-03-15T08:45:07;98503.28;;;6.53;52.70
75045;BME280;63614;56.026;35.960;2023-03-15T08:47:33;98521.66;;;6.44;53.21
75045;BME280;63614;56.026;35.960;2023-03-15T08:50:01;98521.75;;;6.50;53.25
75045;BME280;63614;56.026;35.960;2023-03-15T08:52:29;98530.94;;;6.38;53.34
75045;BME280;63614;56.026;35.960;2023-03-15T08:54:56;98531.75;;;6.24;53.60
75045;BME280;63614;56.026;35.960;2023-03-15T08:57:22;98539.78;;;6.29;53.70
75045;BME280;63614;56.026;35.960;2023-03-15T08:59:51;98536.19;;;6.45;53.43
75045;BME280;63614;56.026;35.960;2023-03-15T09:02:18;98519.09;;;6.44;53.15
75045;BME280;63614;56.026;35.960;2023-03-15T09:04:44;98531.53;;;6.55;52.72
75045;BME280;63614;56.026;35.960;2023-03-15T09:07:10;98527.44;;;6.61;53.01
75045;BME280;63614;56.026;35.960;2023-03-15T09:09:38;98530.75;;;6.54;53.06
75045;BME280;63614;56.026;35.960;2023-03-15T09:12:04;98527.84;;;6.64;52.78
75045;BME280;63614;56.026;35.960;2023-03-15T09:14:30;98521.66;;;6.80;52.06
75045;BME280;63614;56.026;35.960;2023-03-15T09:16:56;98530.94;;;6.75;52.73
75045;BME280;63614;56.026;35.960;2023-03-15T09:19:22;98521.53;;;6.88;52.26
75045;BME280;63614;56.026;35.960;2023-03-15T09:21:48;98517.88;;;7.04;51.76
75045;BME280;63614;56.026;35.960;2023-03-15T09:24:14;98522.50;;;7.09;51.61
75045;BME280;63614;56.026;35.960;2023-03-15T09:26:39;98517.34;;;7.09;51.27
75045;BME280;63614;56.026;35.960;2023-03-15T09:29:06;98522.66;;;7.29;51.03
75045;BME280;63614;56.026;35.960;2023-03-15T09:31:34;98534.38;;;7.25;50.69
75045;BME280;63614;56.026;35.960;2023-03-15T09:34:00;98525.13;;;7.37;50.46
75045;BME280;63614;56.026;35.960;2023-03-15T09:36:26;98526.56;;;7.46;50.06
75045;BME280;63614;56.026;35.960;2023-03-15T09:38:51;98524.47;;;7.57;49.93
75045;BME280;63614;56.026;35.960;2023-03-15T09:41:43;98521.50;;;7.60;49.83
75045;BME280;63614;56.026;35.960;2023-03-15T09:47:26;98523.59;;;7.78;48.80
75045;BME280;63614;56.026;35.960;2023-03-15T09:49:56;98523.38;;;7.73;48.96
75045;BME280;63614;56.026;35.960;2023-03-15T09:52:40;98507.34;;;7.62;48.15
75045;BME280;63614;56.026;35.960;2023-03-15T09:55:12;98506.78;;;7.67;48.53
75045;BME280;63614;56.026;35.960;2023-03-15T09:57:47;98515.97;;;7.70;48.88
75045;BME280;63614;56.026;35.960;2023-03-15T10:00:42;98526.84;;;7.87;48.65
75045;BME280;63614;56.026;35.960;2023-03-15T10:03:14;98530.94;;;7.74;48.07
75045;BME280;63614;56.026;35.960;2023-03-15T10:05:44;98536.09;;;7.68;48.28
75045;BME280;63614;56.026;35.960;2023-03-15T10:08:13;98545.63;;;7.67;49.18
75045;BME280;63614;56.026;35.960;2023-03-15T10:16:19;98523.75;;;7.70;48.51
75045;BME280;63614;56.026;35.960;2023-03-15T10:18:52;98529.34;;;7.73;48.79
75045;BME280;63614;56.026;35.960;2023-03-15T10:23:53;98537.59;;;7.55;49.66
75045;BME280;63614;56.026;35.960;2023-03-15T10:26:24;98542.66;;;7.70;49.72
75045;BME280;63614;56.026;35.960;2023-03-15T10:28:52;98537.47;;;7.70;49.34
75045;BME280;63614;56.026;35.960;2023-03-15T10:31:23;98542.47;;;7.72;49.62
75045;BME280;63614;56.026;35.960;2023-03-15T10:33:50;98524.34;;;7.72;49.60
75045;BME280;63614;56.026;35.960;2023-03-15T10:36:19;98535.09;;;7.75;50.10
75045;BME280;63614;56.026;35.960;2023-03-15T10:38:45;98529.69;;;7.63;50.05
75045;BME280;63614;56.026;35.960;2023-03-15T10:41:26;98534.81;;;7.92;49.57
75045;BME280;63614;56.026;35.960;2023-03-15T10:44:01;98523.41;;;7.79;49.75
75045;BME280;63614;56.026;35.960;2023-03-15T10:46:27;98515.66;;;7.86;49.39
75045;BME280;63614;56.026;35.960;2023-03-15T10:48:58;98515.97;;;7.70;49.46
75045;BME280;63614;56.026;35.960;2023-03-15T10:51:36;98525.19;;;7.79;49.54
75045;BME280;63614;56.026;35.960;2023-03-15T10:54:06;98520.84;;;7.86;49.59
75045;BME280;63614;56.026;35.960;2023-03-15T10:56:59;98516.81;;;7.77;50.07
75045;BME280;63614;56.026;35.960;2023-03-15T10:59:31;98522.94;;;7.69;50.21
75045;BME280;63614;56.026;35.960;2023-03-15T11:04:40;98514.75;;;7.66;49.71
75045;BME280;63614;56.026;35.960;2023-03-15T11:07:06;98530.06;;;7.60;50.06
75045;BME280;63614;56.026;35.960;2023-03-15T11:09:41;98512.88;;;7.53;50.60
75045;BME280;63614;56.026;35.960;2023-03-15T11:12:09;98518.81;;;7.46;50.49
75045;BME280;63614;56.026;35.960;2023-03-15T11:14:43;98529.47;;;7.65;50.24
75045;BME280;63614;56.026;35.960;2023-03-15T11:17:21;98522.28;;;7.60;50.18
75045;BME280;63614;56.026;35.960;2023-03-15T11:20:31;98532.25;;;7.63;50.40
75045;BME280;63614;56.026;35.960;2023-03-15T11:22:40;98532.41;;;7.55;50.57
75045;BME280;63614;56.026;35.960;2023-03-15T11:25:28;98542.81;;;7.62;50.85
75045;BME280;63614;56.026;35.960;2023-03-15T11:27:56;98550.56;;;7.62;50.81
75045;BME280;63614;56.026;35.960;2023-03-15T11:30:27;98548.41;;;7.66;50.53
75045;BME280;63614;56.026;35.960;2023-03-15T11:32:54;98552.50;;;7.53;51.02
75045;BME280;63614;56.026;35.960;2023-03-15T11:35:31;98557.25;;;7.50;51.33
75045;BME280;63614;56.026;35.960;2023-03-15T11:38:36;98542.91;;;7.47;51.75
75045;BME280;63614;56.026;35.960;2023-03-15T11:41:27;98545.63;;;7.39;52.22
75045;BME280;63614;56.026;35.960;2023-03-15T11:44:21;98546.84;;;7.43;51.97
75045;BME280;63614;56.026;35.960;2023-03-15T11:47:00;98553.22;;;7.40;52.28
75045;BME280;63614;56.026;35.960;2023-03-15T11:52:12;98549.19;;;7.38;52.25
75045;BME280;63614;56.026;35.960;2023-03-15T11:54:39;98546.34;;;7.26;52.71
75045;BME280;63614;56.026;35.960;2023-03-15T12:11:01;98549.56;;;7.13;54.41
75045;BME280;63614;56.026;35.960;2023-03-15T12:13:34;98542.03;;;7.12;54.61
75045;BME280;63614;56.026;35.960;2023-03-15T12:16:00;98547.22;;;7.12;54.47
75045;BME280;63614;56.026;35.960;2023-03-15T12:18:32;98553.81;;;7.21;54.57
75045;BME280;63614;56.026;35.960;2023-03-15T12:21:10;98558.53;;;7.11;54.70
75045;BME280;63614;56.026;35.960;2023-03-15T12:23:39;98559.69;;;7.08;55.03
75045;BME280;63614;56.026;35.960;2023-03-15T12:26:09;98561.25;;;7.02;55.10
75045;BME280;63614;56.026;35.960;2023-03-15T12:28:41;98563.63;;;7.04;55.08
75045;BME280;63614;56.026;35.960;2023-03-15T12:31:14;98561.09;;;7.11;55.22
75045;BME280;63614;56.026;35.960;2023-03-15T12:33:58;98564.00;;;7.01;55.54
75045;BME280;63614;56.026;35.960;2023-03-15T12:36:39;98558.84;;;7.01;54.99
75045;BME280;63614;56.026;35.960;2023-03-15T12:41:42;98556.50;;;7.06;55.47
75045;BME280;63614;56.026;35.960;2023-03-15T12:46:58;98564.78;;;7.01;55.67
75045;BME280;63614;56.026;35.960;2023-03-15T12:55:02;98556.84;;;7.03;56.03
75045;BME280;63614;56.026;35.960;2023-03-15T12:57:36;98567.31;;;6.95;56.31
75045;BME280;63614;56.026;35.960;2023-03-15T13:00:22;98565.91;;;6.92;56.45
75045;BME280;63614;56.026;35.960;2023-03-15T13:03:11;98562.03;;;7.03;56.41
75045;BME280;63614;56.026;35.960;2023-03-15T13:06:03;98562.75;;;6.97;56.55
75045;BME280;63614;56.026;35.960;2023-03-15T13:13:58;98554.81;;;6.77;57.10
75045;BME280;63614;56.026;35.960;2023-03-15T13:16:35;98559.31;;;6.89;57.11
75045;BME280;63614;56.026;35.960;2023-03-15T13:19:18;98546.78;;;6.86;57.32
75045;BME280;63614;56.026;35.960;2023-03-15T13:21:59;98541.16;;;6.83;57.43
75045;BME280;63614;56.026;35.960;2023-03-15T13:24:35;98541.53;;;6.80;57.52
75045;BME280;63614;56.026;35.960;2023-03-15T13:29:36;98545.66;;;6.74;58.04
75045;BME280;63614;56.026;35.960;2023-03-15T13:32:14;98545.41;;;6.69;58.35
75045;BME280;63614;56.026;35.960;2023-03-15T13:34:42;98546.00;;;6.71;58.30
75045;BME280;63614;56.026;35.960;2023-03-15T13:37:23;98538.88;;;6.73;57.92
75045;BME280;63614;56.026;35.960;2023-03-15T13:39:55;98544.75;;;6.67;58.35
75045;BME280;63614;56.026;35.960;2023-03-15T13:42:23;98540.84;;;6.71;58.48
75045;BME280;63614;56.026;35.960;2023-03-15T13:47:33;98547.09;;;6.62;58.67
75045;BME280;63614;56.026;35.960;2023-03-15T13:50:02;98543.72;;;6.61;58.85
75045;BME280;63614;56.026;35.960;2023-03-15T13:52:29;98553.88;;;6.63;58.71
75045;BME280;63614;56.026;35.960;2023-03-15T13:54:55;98545.50;;;6.61;58.82
75045;BME280;63614;56.026;35.960;2023-03-15T13:57:22;98547.16;;;6.68;58.76
75045;BME280;63614;56.026;35.960;2023-03-15T14:02:34;98551.91;;;6.65;58.77
75045;BME280;63614;56.026;35.960;2023-03-15T14:05:06;98548.78;;;6.69;58.87
75045;BME280;63614;56.026;35.960;2023-03-15T14:07:41;98550.38;;;6.70;59.03
75045;BME280;63614;56.026;35.960;2023-03-15T14:10:33;98565.72;;;6.72;58.98
75045;BME280;63614;56.026;35.960;2023-03-15T14:13:22;98561.34;;;6.72;58.85
75045;BME280;63614;56.026;35.960;2023-03-15T14:15:51;98560.91;;;6.69;58.95
75045;BME280;63614;56.026;35.960;2023-03-15T14:18:25;98568.22;;;6.65;59.37
75045;BME280;63614;56.026;35.960;2023-03-15T14:21:05;98564.94;;;6.57;59.64
75045;BME280;63614;56.026;35.960;2023-03-15T14:23:35;98559.44;;;6.45;60.01
75045;BME280;63614;56.026;35.960;2023-03-15T14:28:30;98560.75;;;6.55;59.75